sensor_id;sensor_type;location;lat;lon;timestamp;pressure;altitude;pressure_sealevel;temperature;humidity
34185;BME280;20454;48.100;11.776;2022-12-04T00:00:21;95002.13;;;1.25;100.00
34185;BME280;20454;48.100;11.776;2022-12-04T00:02:47;94993.34;;;1.28;100.00
34185;BME280;20454;48.100;11.776;2022-12-04T00:05:13;94994.72;;;1.25;100.00
34185;BME280;20454;48.100;11.776;2022-12-04T00:07:39;94993.34;;;1.23;100.00
34185;BME280;20454;48.100;11.776;2022-12-04T00:10:05;94994.72;;;1.25;100.00
34185;BME280;20454;48.100;11.776;2022-12-04T00:12:31;94999.09;;;1.26;100.00
34185;BME280;20454;48.100;11.776;2022-12-04T00:14:58;94996.38;;;1.21;100.00
34185;BME280;20454;48.100;11.776;2022-12-04T00:17:24;95014.47;;;1.22;100.00
34185;BME280;20454;48.100;11.776;2022-12-04T00:19:50;95010.88;;;1.22;100.00
34185;BME280;20454;48.100;11.776;2022-12-04T00:22:16;95007.34;;;1.21;100.00
34185;BME280;20454;48.100;11.776;2022-12-04T00:24:41;95012.53;;;1.23;100.00
34185;BME280;20454;48.100;11.776;2022-12-04T00:27:07;95007.03;;;1.23;100.00
34185;BME280;20454;48.100;11.776;2022-12-04T00:29:33;95009.50;;;1.24;100.00
34185;BME280;20454;48.100;11.776;2022-12-04T00:31:58;94989.81;;;1.22;100.00
34185;BME280;20454;48.100;11.776;2022-12-04T00:34:24;95008.97;;;1.22;100.00
34185;BME280;20454;48.100;11.776;2022-12-04T00:36:50;95014.72;;;1.21;100.00
34185;BME280;20454;48.100;11.776;2022-12-04T00:39:15;95010.88;;;1.22;100.00
34185;BME280;20454;48.100;11.776;2022-12-04T00:41:41;95010.63;;;1.18;100.00
34185;BME280;20454;48.100;11.776;2022-12-04T00:44:07;94997.22;;;1.12;100.00
34185;BME280;20454;48.100;11.776;2022-12-04T00:46:32;94998.28;;;1.16;100.00
34185;BME280;20454;48.100;11.776;2022-12-04T00:48:58;94999.66;;;1.13;100.00
34185;BME280;20454;48.100;11.776;2022-12-04T00:51:27;95000.75;;;1.12;100.00
34185;BME280;20454;48.100;11.776;2022-12-04T00:53:53;95000.50;;;1.14;100.00
34185;BME280;20454;48.100;11.776;2022-12-04T00:56:23;94995.28;;;1.12;100.00
34185;BME280;20454;48.100;11.776;2022-12-04T00:58:56;94993.13;;;1.14;100.00
34185;BME280;20454;48.100;11.776;2022-12-04T01:01:23;95002.97;;;1.15;100.00
34185;BME280;20454;48.100;11.776;2022-12-04T01:03:49;94987.34;;;1.16;100.00
34185;BME280;20454;48.100;11.776;2022-12-04T01:06:25;94980.75;;;1.17;100.00
34185;BME280;20454;48.100;11.776;2022-12-04T01:08:53;94982.44;;;1.18;100.00
34185;BME280;20454;48.100;11.776;2022-12-04T01:11:20;94996.09;;;1.23;100.00
34185;BME280;20454;48.100;11.776;2022-12-04T01:13:46;95001.31;;;1.14;100.00
34185;BME280;20454;48.100;11.776;2022-12-04T01:16:26;95000.50;;;1.14;100.00
34185;BME280;20454;48.100;11.776;2022-12-04T01:18:52;95007.06;;;1.18;100.00
34185;BME280;20454;48.100;11.776;2022-12-04T01:21:19;95001.88;;;1.16;100.00
34185;BME280;20454;48.100;11.776;2022-12-04T01:23:45;95022.41;;;1.19;100.00
34185;BME280;20454;48.100;11.776;2022-12-04T01:26:11;95027.63;;;1.15;100.00
34185;BME280;20454;48.100;11.776;2022-12-04T01:28:37;95012.56;;;1.18;100.00
34185;BME280;20454;48.100;11.776;2022-12-04T01:31:07;95008.97;;;1.17;100.00
34185;BME280;20454;48.100;11.776;2022-12-04T01:33:35;95007.06;;;1.18;100.00
34185;BME280;20454;48.100;11.776;2022-12-04T01:36:03;95006.50;;;1.21;100.00
34185;BME280;20454;48.100;11.776;2022-12-04T01:38:30;95006.50;;;1.21;100.00
34185;BME280;20454;48.100;11.776;2022-12-04T01:40:57;95005.97;;;1.19;100.00
34185;BME280;20454;48.100;11.776;2022-12-04T01:43:24;95014.19;;;1.19;100.00
34185;BME280;20454;48.100;11.776;2022-12-04T01:45:56;95005.41;;;1.17;100.00
34185;BME280;20454;48.100;11.776;2022-12-04T01:48:34;95001.59;;;1.18;100.00
34185;BME280;20454;48.100;11.776;2022-12-04T01:51:24;94998.28;;;1.16;100.00
34185;BME280;20454;48.100;11.776;2022-12-04T01:54:02;94996.13;;;1.18;100.00
34185;BME280;20454;48.100;11.776;2022-12-04T01:56:41;94985.16;;;1.18;100.00
34185;BME280;20454;48.100;11.776;2022-12-04T01:59:10;94980.75;;;1.22;100.00
34185;BME280;20454;48.100;11.776;2022-12-04T02:01:56;94972.28;;;1.23;100.00
34185;BME280;20454;48.100;11.776;2022-12-04T02:04:23;94980.50;;;1.18;100.00
34185;BME280;20454;48.100;11.776;2022-12-04T02:06:49;94975.56;;;1.15;100.00
34185;BME280;20454;48.100;11.776;2022-12-04T02:09:15;94981.31;;;1.14;100.00
34185;BME280;20454;48.100;11.776;2022-12-04T02:11:55;94984.63;;;1.11;100.00
34185;BME280;20454;48.100;11.776;2022-12-04T02:20:44;94966.53;;;1.10;100.00
34185;BME280;20454;48.100;11.776;2022-12-04T02:31:33;94955.88;;;1.08;100.00
34185;BME280;20454;48.100;11.776;2022-12-04T02:34:04;94947.38;;;1.10;100.00
34185;BME280;20454;48.100;11.776;2022-12-04T02:36:51;94951.47;;;1.12;100.00
34185;BME280;20454;48.100;11.776;2022-12-04T02:39:24;94941.63;;;1.11;100.00
34185;BME280;20454;48.100;11.776;2022-12-04T02:42:12;94940.81;;;1.06;100.00
34185;BME280;20454;48.100;11.776;2022-12-04T02:44:56;94945.72;;;1.09;100.00
34185;BME280;20454;48.100;11.776;2022-12-04T02:47:23;94954.78;;;1.09;100.00
34185;BME280;20454;48.100;11.776;2022-12-04T02:49:58;94957.50;;;1.04;100.00
34185;BME280;20454;48.100;11.776;2022-12-04T02:52:35;94955.59;;;1.05;100.00
34185;BME280;20454;48.100;11.776;2022-12-04T02:55:09;94945.19;;;1.07;100.00
34185;BME280;20454;48.100;11.776;2022-12-04T02:57:42;94950.13;;;1.05;100.00
34185;BME280;20454;48.100;11.776;2022-12-04T03:00:09;94937.28;;;1.00;100.00
34185;BME280;20454;48.100;11.776;2022-12-04T06:32:29;94888.69;;;1.31;100.00
34185;BME280;20454;48.100;11.776;2022-12-04T06:34:55;94893.63;;;1.29;100.00
34185;BME280;20454;48.100;11.776;2022-12-04T06:37:23;94889.50;;;1.31;100.00
34185;BME280;20454;48.100;11.776;2022-12-04T06:39:50;94880.75;;;1.29;100.00
34185;BME280;20454;48.100;11.776;2022-12-04T06:42:15;94898.84;;;1.30;100.00
34185;BME280;20454;48.100;11.776;2022-12-04T06:44:41;94898.00;;;1.30;100.00
34185;BME280;20454;48.100;11.776;2022-12-04T06:47:07;94895.81;;;1.32;100.00
34185;BME280;20454;48.100;11.776;2022-12-04T06:49:33;94896.38;;;1.29;100.00
34185;BME280;20454;48.100;11.776;2022-12-04T06:51:59;94900.75;;;1.30;100.00
34185;BME280;20454;48.100;11.776;2022-12-04T06:54:25;94903.78;;;1.28;100.00
34185;BME280;20454;48.100;11.776;2022-12-04T06:56:51;94899.94;;;1.24;100.00
34185;BME280;20454;48.100;11.776;2022-12-04T06:59:16;94889.25;;;1.23;100.00
34185;BME280;20454;48.100;11.776;2022-12-04T07:01:42;94910.06;;;1.24;100.00
34185;BME280;20454;48.100;11.776;2022-12-04T07:04:08;94918.03;;;1.25;100.00
34185;BME280;20454;48.100;11.776;2022-12-04T07:06:37;94899.41;;;1.22;100.00
34185;BME280;20454;48.100;11.776;2022-12-04T07:09:13;94899.94;;;1.24;100.00
34185;BME280;20454;48.100;11.776;2022-12-04T07:11:40;94898.03;;;1.25;100.00
34185;BME280;20454;48.100;11.776;2022-12-04T07:14:06;94899.94;;;1.29;100.00
34185;BME280;20454;48.100;11.776;2022-12-04T07:16:33;94901.56;;;1.30;100.00
34185;BME280;20454;48.100;11.776;2022-12-04T07:18:58;94896.63;;;1.32;100.00
34185;BME280;20454;48.100;11.776;2022-12-04T07:21:27;94889.78;;;1.30;100.00
34185;BME280;20454;48.100;11.776;2022-12-04T07:23:57;94920.47;;;1.32;100.00
34185;BME280;20454;48.100;11.776;2022-12-04T07:26:23;94912.53;;;1.30;100.00
34185;BME280;20454;48.100;11.776;2022-12-04T07:28:50;94936.09;;;1.31;100.00
34185;BME280;20454;48.100;11.776;2022-12-04T07:31:19;94936.91;;;1.32;100.00
34185;BME280;20454;48.100;11.776;2022-12-04T07:33:45;94923.50;;;1.30;100.00
34185;BME280;20454;48.100;11.776;2022-12-04T07:36:14;94907.84;;;1.31;100.00
34185;BME280;20454;48.100;11.776;2022-12-04T07:38:41;94908.13;;;1.34;100.00
34185;BME280;20454;48.100;11.776;2022-12-04T07:41:09;94914.16;;;1.36;100.00
34185;BME280;20454;48.100;11.776;2022-12-04T07:43:35;94922.91;;;1.38;100.00
34185;BME280;20454;48.100;11.776;2022-12-04T13:36:25;94720.41;;;3.03;100.00
34185;BME280;20454;48.100;11.776;2022-12-04T13:42:05;94734.28;;;2.93;100.00
34185;BME280;20454;48.100;11.776;2022-12-04T13:44:32;94733.78;;;2.91;100.00
34185;BME280;20454;48.100;11.776;2022-12-04T13:47:05;94736.31;;;2.87;100.00
34185;BME280;20454;48.100;11.776;2022-12-04T13:49:34;94737.63;;;2.90;100.00
34185;BME280;20454;48.100;11.776;2022-12-04T13:52:04;94742.59;;;2.88;100.00
34185;BME280;20454;48.100;11.776;2022-12-04T13:54:35;94735.97;;;2.89;100.00
34185;BME280;20454;48.100;11.776;2022-12-04T13:59:42;94733.25;;;2.89;100.00
34185;BME280;20454;48.100;11.776;2022-12-04T14:02:28;94727.50;;;2.85;100.00
34185;BME280;20454;48.100;11.776;2022-12-04T14:05:08;94741.78;;;2.87;100.00
34185;BME280;20454;48.100;11.776;2022-12-04T14:07:41;94738.22;;;2.87;100.00
34185;BME280;20454;48.100;11.776;2022-12-04T14:12:48;94737.16;;;2.83;100.00
34185;BME280;20454;48.100;11.776;2022-12-04T14:15:27;94739.31;;;2.86;100.00
34185;BME280;20454;48.100;11.776;2022-12-04T14:18:02;94735.19;;;2.88;100.00
34185;BME280;20454;48.100;11.776;2022-12-04T14:20:34;94721.75;;;2.87;100.00
34185;BME280;20454;48.100;11.776;2022-12-04T14:25:54;94722.19;;;2.94;100.00
34185;BME280;20454;48.100;11.776;2022-12-04T14:34:01;94735.56;;;3.00;100.00
34185;BME280;20454;48.100;11.776;2022-12-04T14:36:34;94737.22;;;3.01;100.00
34185;BME280;20454;48.100;11.776;2022-12-04T14:42:06;94734.25;;;2.98;100.00
34185;BME280;20454;48.100;11.776;2022-12-04T14:44:37;94726.06;;;2.93;100.00
34185;BME280;20454;48.100;11.776;2022-12-04T14:47:28;94721.69;;;2.92;100.00
34185;BME280;20454;48.100;11.776;2022-12-04T14:51:02;94742.03;;;2.91;100.00
34185;BME280;20454;48.100;11.776;2022-12-04T14:53:30;94731.38;;;2.84;100.00
34185;BME280;20454;48.100;11.776;2022-12-04T14:56:31;94745.63;;;2.86;100.00
34185;BME280;20454;48.100;11.776;2022-12-04T14:59:23;94745.38;;;2.83;100.00
34185;BME280;20454;48.100;11.776;2022-12-04T15:01:54;94713.31;;;2.78;100.00
34185;BME280;20454;48.100;11.776;2022-12-04T15:04:28;94722.91;;;2.81;100.00
34185;BME280;20454;48.100;11.776;2022-12-04T15:06:56;94711.69;;;2.77;100.00
34185;BME280;20454;48.100;11.776;2022-12-04T15:09:23;94702.34;;;2.78;100.00
34185;BME280;20454;48.100;11.776;2022-12-04T15:12:21;94706.72;;;2.79;100.00
34185;BME280;20454;48.100;11.776;2022-12-04T15:15:27;94700.72;;;2.77;100.00
34185;BME280;20454;48.100;11.776;2022-12-04T15:18:01;94741.00;;;2.82;100.00
34185;BME280;20454;48.100;11.776;2022-12-04T15:20:53;94752.00;;;2.82;100.00
34185;BME280;20454;48.100;11.776;2022-12-04T15:23:35;94755.56;;;2.82;100.00
34185;BME280;20454;48.100;11.776;2022-12-04T15:26:10;94747.09;;;2.79;100.00
34185;BME280;20454;48.100;11.776;2022-12-04T15:29:02;94760.59;;;2.75;100.00
34185;BME280;20454;48.100;11.776;2022-12-04T15:31:43;94764.22;;;2.71;100.00
34185;BME280;20454;48.100;11.776;2022-12-04T15:34:24;94771.59;;;2.75;100.00
34185;BME280;20454;48.100;11.776;2022-12-04T15:39:40;94764.00;;;2.67;100.00
34185;BME280;20454;48.100;11.776;2022-12-04T15:44:57;94780.69;;;2.71;100.00
34185;BME280;20454;48.100;11.776;2022-12-04T15:47:32;94769.47;;;2.67;100.00
34185;BME280;20454;48.100;11.776;2022-12-04T15:50:22;94781.25;;;2.68;100.00
34185;BME280;20454;48.100;11.776;2022-12-04T15:53:15;94777.13;;;2.70;100.00
34185;BME280;20454;48.100;11.776;2022-12-04T15:55:57;94794.94;;;2.73;100.00
34185;BME280;20454;48.100;11.776;2022-12-04T15:58:37;94807.03;;;2.72;100.00
34185;BME280;20454;48.100;11.776;2022-12-04T16:01:10;94801.03;;;2.70;100.00
34185;BME280;20454;48.100;11.776;2022-12-04T16:06:13;94807.31;;;2.70;100.00
34185;BME280;20454;48.100;11.776;2022-12-04T16:08:41;94805.69;;;2.69;100.00
34185;BME280;20454;48.100;11.776;2022-12-04T16:16:39;94801.06;;;2.65;100.00
34185;BME280;20454;48.100;11.776;2022-12-04T16:19:15;94801.13;;;2.60;100.00
34185;BME280;20454;48.100;11.776;2022-12-04T16:21:41;94799.25;;;2.55;100.00
34185;BME280;20454;48.100;11.776;2022-12-04T16:24:10;94819.81;;;2.58;100.00
34185;BME280;20454;48.100;11.776;2022-12-04T16:26:37;94812.69;;;2.57;100.00
34185;BME280;20454;48.100;11.776;2022-12-04T16:29:03;94816.28;;;2.52;100.00
34185;BME280;20454;48.100;11.776;2022-12-04T16:31:28;94812.44;;;2.53;100.00
34185;BME280;20454;48.100;11.776;2022-12-04T16:33:54;94814.38;;;2.53;100.00
34185;BME280;20454;48.100;11.776;2022-12-04T19:24:46;94878.84;;;2.55;100.00
34185;BME280;20454;48.100;11.776;2022-12-04T19:27:12;94883.22;;;2.56;100.00
34185;BME280;20454;48.100;11.776;2022-12-04T19:29:40;94891.50;;;2.51;100.00
34185;BME280;20454;48.100;11.776;2022-12-04T19:32:06;94893.97;;;2.53;100.00
34185;BME280;20454;48.100;11.776;2022-12-04T19:34:32;94895.34;;;2.50;100.00
34185;BME280;20454;48.100;11.776;2022-12-04T19:36:58;94886.59;;;2.48;100.00
34185;BME280;20454;48.100;11.776;2022-12-04T19:39:24;94895.63;;;2.49;100.00
34185;BME280;20454;48.100;11.776;2022-12-04T19:41:50;94897.28;;;2.50;100.00
34185;BME280;20454;48.100;11.776;2022-12-04T19:44:17;94908.56;;;2.48;100.00
34185;BME280;20454;48.100;11.776;2022-12-04T19:46:46;94906.91;;;2.47;100.00
34185;BME280;20454;48.100;11.776;2022-12-04T19:49:12;94913.22;;;2.48;100.00
34185;BME280;20454;48.100;11.776;2022-12-04T19:51:39;94914.31;;;2.47;100.00
34185;BME280;20454;48.100;11.776;2022-12-04T19:54:07;94916.81;;;2.43;100.00
34185;BME280;20454;48.100;11.776;2022-12-04T19:56:35;94932.47;;;2.43;100.00
34185;BME280;20454;48.100;11.776;2022-12-04T19:59:05;94950.03;;;2.42;100.00
34185;BME280;20454;48.100;11.776;2022-12-04T20:01:31;94948.44;;;2.36;100.00
34185;BME280;20454;48.100;11.776;2022-12-04T20:04:00;94941.28;;;2.35;100.00
34185;BME280;20454;48.100;11.776;2022-12-04T20:06:35;94952.00;;;2.36;100.00
34185;BME280;20454;48.100;11.776;2022-12-04T20:09:06;94955.31;;;2.33;100.00
34185;BME280;20454;48.100;11.776;2022-12-04T20:11:32;94952.31;;;2.30;100.00
34185;BME280;20454;48.100;11.776;2022-12-04T20:14:00;94961.63;;;2.34;100.00
34185;BME280;20454;48.100;11.776;2022-12-04T20:16:28;94973.91;;;2.41;100.00
34185;BME280;20454;48.100;11.776;2022-12-04T20:18:55;94955.84;;;2.35;100.00
34185;BME280;20454;48.100;11.776;2022-12-04T20:21:22;94958.88;;;2.34;100.00
34185;BME280;20454;48.100;11.776;2022-12-04T20:23:53;94959.44;;;2.31;100.00
34185;BME280;20454;48.100;11.776;2022-12-04T20:26:25;94969.84;;;2.34;100.00
34185;BME280;20454;48.100;11.776;2022-12-04T20:28:55;94973.16;;;2.36;100.00
34185;BME280;20454;48.100;11.776;2022-12-04T20:31:27;94981.13;;;2.32;100.00
34185;BME280;20454;48.100;11.776;2022-12-04T20:33:56;94988.25;;;2.33;100.00
34185;BME280;20454;48.100;11.776;2022-12-04T20:36:25;94989.06;;;2.34;100.00
34185;BME280;20454;48.100;11.776;2022-12-04T20:38:53;94987.41;;;2.33;100.00
34185;BME280;20454;48.100;11.776;2022-12-04T20:41:20;94995.66;;;2.33;100.00
34185;BME280;20454;48.100;11.776;2022-12-04T20:43:46;94991.00;;;2.33;100.00
34185;BME280;20454;48.100;11.776;2022-12-04T20:46:35;94985.78;;;2.32;100.00
34185;BME280;20454;48.100;11.776;2022-12-04T20:49:05;95000.03;;;2.34;100.00
34185;BME280;20454;48.100;11.776;2022-12-04T20:51:38;94995.91;;;2.31;100.00
34185;BME280;20454;48.100;11.776;2022-12-04T20:54:05;94989.66;;;2.26;100.00
34185;BME280;20454;48.100;11.776;2022-12-04T20:56:35;94995.97;;;2.26;100.00
34185;BME280;20454;48.100;11.776;2022-12-04T20:59:07;95002.00;;;2.28;100.00
34185;BME280;20454;48.100;11.776;2022-12-04T21:01:35;94994.63;;;2.24;100.00
34185;BME280;20454;48.100;11.776;2022-12-04T21:04:02;94998.16;;;2.24;100.00
34185;BME280;20454;48.100;11.776;2022-12-04T21:06:39;95009.94;;;2.30;100.00
34185;BME280;20454;48.100;11.776;2022-12-04T21:09:18;95018.19;;;2.30;100.00
34185;BME280;20454;48.100;11.776;2022-12-04T21:11:51;95001.97;;;2.33;100.00
34185;BME280;20454;48.100;11.776;2022-12-04T21:14:28;95004.41;;;2.35;100.00
34185;BME280;20454;48.100;11.776;2022-12-04T21:17:15;94991.28;;;2.32;100.00
34185;BME280;20454;48.100;11.776;2022-12-04T21:19:44;94996.75;;;2.32;100.00
34185;BME280;20454;48.100;11.776;2022-12-04T21:22:11;94998.41;;;2.28;100.00
34185;BME280;20454;48.100;11.776;2022-12-04T21:24:37;95001.72;;;2.30;100.00
34185;BME280;20454;48.100;11.776;2022-12-04T21:27:06;95000.09;;;2.24;100.00
34185;BME280;20454;48.100;11.776;2022-12-04T21:29:32;94992.72;;;2.19;100.00
34185;BME280;20454;48.100;11.776;2022-12-04T21:31:59;95002.88;;;2.19;100.00
34185;BME280;20454;48.100;11.776;2022-12-04T21:34:24;95002.88;;;2.19;100.00
34185;BME280;20454;48.100;11.776;2022-12-04T21:36:50;95001.22;;;2.18;100.00
34185;BME280;20454;48.100;11.776;2022-12-04T21:39:16;95013.03;;;2.18;100.00
34185;BME280;20454;48.100;11.776;2022-12-04T21:41:42;94999.59;;;2.17;100.00
34185;BME280;20454;48.100;11.776;2022-12-04T21:44:26;95002.59;;;2.20;100.00
34185;BME280;20454;48.100;11.776;2022-12-04T21:46:52;94995.47;;;2.19;100.00
34185;BME280;20454;48.100;11.776;2022-12-04T21:49:18;94996.00;;;2.21;100.00
34185;BME280;20454;48.100;11.776;2022-12-04T21:51:44;94996.81;;;2.22;100.00
34185;BME280;20454;48.100;11.776;2022-12-04T21:54:10;95000.09;;;2.24;100.00
34185;BME280;20454;48.100;11.776;2022-12-04T21:56:36;95004.22;;;2.26;100.00
34185;BME280;20454;48.100;11.776;2022-12-04T21:59:03;94992.94;;;2.28;100.00
34185;BME280;20454;48.100;11.776;2022-12-04T22:01:28;95003.91;;;2.28;100.00
34185;BME280;20454;48.100;11.776;2022-12-04T22:03:55;94994.88;;;2.27;100.00
34185;BME280;20454;48.100;11.776;2022-12-04T22:06:24;94998.41;;;2.28;100.00
34185;BME280;20454;48.100;11.776;2022-12-04T22:08:50;95007.47;;;2.28;100.00
34185;BME280;20454;48.100;11.776;2022-12-04T22:11:17;95014.34;;;2.26;100.00
34185;BME280;20454;48.100;11.776;2022-12-04T22:13:43;95011.06;;;2.24;100.00
34185;BME280;20454;48.100;11.776;2022-12-04T22:16:12;95017.66;;;2.23;100.00
34185;BME280;20454;48.100;11.776;2022-12-04T22:18:39;95019.59;;;2.22;100.00
34185;BME280;20454;48.100;11.776;2022-12-04T22:21:11;95039.03;;;2.26;100.00
34185;BME280;20454;48.100;11.776;2022-12-04T22:23:37;95026.44;;;2.25;100.00
34185;BME280;20454;48.100;11.776;2022-12-04T22:26:06;95016.03;;;2.22;100.00
34185;BME280;20454;48.100;11.776;2022-12-04T22:28:32;95031.34;;;2.28;100.00
34185;BME280;20454;48.100;11.776;2022-12-04T22:31:09;95052.75;;;2.26;100.00
34185;BME280;20454;48.100;11.776;2022-12-04T22:33:35;95050.00;;;2.26;100.00
34185;BME280;20454;48.100;11.776;2022-12-04T22:36:12;95061.84;;;2.21;100.00
34185;BME280;20454;48.100;11.776;2022-12-04T22:38:38;95067.91;;;2.18;100.00
34185;BME280;20454;48.100;11.776;2022-12-04T22:41:11;95077.78;;;2.19;100.00
34185;BME280;20454;48.100;11.776;2022-12-04T22:43:37;95078.56;;;2.20;100.00
34185;BME280;20454;48.100;11.776;2022-12-04T22:46:03;95065.69;;;2.15;100.00
34185;BME280;20454;48.100;11.776;2022-12-04T22:48:31;95071.47;;;2.14;100.00
34185;BME280;20454;48.100;11.776;2022-12-04T22:51:06;95068.44;;;2.15;100.00
34185;BME280;20454;48.100;11.776;2022-12-04T22:56:24;95081.63;;;2.18;100.00
34185;BME280;20454;48.100;11.776;2022-12-04T22:58:51;95079.94;;;2.17;100.00
34185;BME280;20454;48.100;11.776;2022-12-04T23:01:23;95074.75;;;2.16;100.00
34185;BME280;20454;48.100;11.776;2022-12-04T23:03:50;95065.16;;;2.13;100.00
34185;BME280;20454;48.100;11.776;2022-12-04T23:06:19;95089.84;;;2.18;100.00
34185;BME280;20454;48.100;11.776;2022-12-04T23:08:45;95080.78;;;2.18;100.00
34185;BME280;20454;48.100;11.776;2022-12-04T23:11:18;95087.91;;;2.19;100.00
34185;BME280;20454;48.100;11.776;2022-12-04T23:13:50;95080.50;;;2.19;100.00
34185;BME280;20454;48.100;11.776;2022-12-04T23:16:17;95081.03;;;2.21;100.00
34185;BME280;20454;48.100;11.776;2022-12-04T23:18:43;95086.81;;;2.20;100.00
34185;BME280;20454;48.100;11.776;2022-12-04T23:21:11;95078.31;;;2.16;100.00
34185;BME280;20454;48.100;11.776;2022-12-04T23:23:41;95082.16;;;2.15;100.00
34185;BME280;20454;48.100;11.776;2022-12-04T23:26:11;95081.63;;;2.13;100.00
34185;BME280;20454;48.100;11.776;2022-12-04T23:28:37;95087.91;;;2.14;100.00
34185;BME280;20454;48.100;11.776;2022-12-04T23:31:03;95084.09;;;2.15;100.00
34185;BME280;20454;48.100;11.776;2022-12-04T23:33:30;95062.97;;;2.15;100.00
34185;BME280;20454;48.100;11.776;2022-12-04T23:36:00;95071.19;;;2.15;100.00
34185;BME280;20454;48.100;11.776;2022-12-04T23:38:27;95068.97;;;2.17;100.00
34185;BME280;20454;48.100;11.776;2022-12-04T23:43:27;95082.41;;;2.19;100.00
34185;BME280;20454;48.100;11.776;2022-12-04T23:45:52;95085.44;;;2.17;100.00
34185;BME280;20454;48.100;11.776;2022-12-04T23:48:18;95100.00;;;2.18;100.00
34185;BME280;20454;48.100;11.776;2022-12-04T23:50:44;95101.63;;;2.19;100.00
34185;BME280;20454;48.100;11.776;2022-12-04T23:53:10;95078.63;;;2.15;100.00
34185;BME280;20454;48.100;11.776;2022-12-04T23:55:37;95084.91;;;2.15;100.00
34185;BME280;20454;48.100;11.776;2022-12-04T23:58:03;95092.88;;;2.12;100.00
